createdAt,value
2022-10-19T00:00:16.940Z,1
2022-10-19T00:05:16.951Z,1
2022-10-19T00:10:16.903Z,2
2022-10-19T00:15:17.058Z,2
2022-10-19T00:20:17.020Z,2
2022-10-19T00:25:17.002Z,3
2022-10-19T00:30:16.996Z,3
2022-10-19T00:35:17.018Z,3
2022-10-19T00:40:16.993Z,2
2022-10-19T00:45:17.064Z,2
2022-10-19T00:50:17.199Z,3
2022-10-19T00:55:17.017Z,3
2022-10-19T01:00:17.190Z,2
2022-10-19T01:05:17.063Z,0
2022-10-19T01:10:17.132Z,1
2022-10-19T01:15:17.076Z,2
2022-10-19T01:20:17.140Z,0
2022-10-19T01:25:17.133Z,2
2022-10-19T01:30:17.139Z,1
2022-10-19T01:35:17.311Z,3
2022-10-19T01:40:17.135Z,1
2022-10-19T01:45:17.227Z,1
2022-10-19T01:50:17.189Z,2
2022-10-19T01:55:17.104Z,2
2022-10-19T02:00:17.198Z,2
2022-10-19T02:05:17.205Z,3
2022-10-19T02:10:17.236Z,3
2022-10-19T02:15:17.306Z,3
2022-10-19T02:20:17.296Z,3
2022-10-19T02:25:17.416Z,2
2022-10-19T02:30:17.184Z,4
2022-10-19T02:35:17.379Z,3
2022-10-19T02:40:17.479Z,4
2022-10-19T02:45:17.270Z,4
2022-10-19T02:50:17.379Z,6
2022-10-19T02:55:17.269Z,4
2022-10-19T03:00:17.359Z,5
2022-10-19T03:05:17.375Z,7
2022-10-19T03:10:17.293Z,6
2022-10-19T03:15:17.498Z,4
2022-10-19T03:20:17.472Z,4
2022-10-19T03:25:17.360Z,3
2022-10-19T03:30:17.505Z,1
2022-10-19T03:35:15.373Z,3
2022-10-19T03:40:15.412Z,4
2022-10-19T03:45:15.346Z,1
2022-10-19T03:50:15.434Z,4
2022-10-19T03:55:15.404Z,4
2022-10-19T04:00:16.470Z,2
2022-10-19T04:05:16.500Z,2
2022-10-19T04:10:16.473Z,2
2022-10-19T04:15:16.581Z,2
2022-10-19T04:20:16.564Z,3
2022-10-19T04:25:16.684Z,1
2022-10-19T04:30:16.496Z,0
2022-10-19T04:35:16.439Z,3
2022-10-19T04:40:16.429Z,3
2022-10-19T04:45:17.154Z,1
2022-10-19T04:50:16.630Z,1
2022-10-19T04:55:16.500Z,2
2022-10-19T05:00:16.532Z,1
2022-10-19T05:05:16.485Z,3
2022-10-19T05:10:16.624Z,4
2022-10-19T05:15:16.560Z,3
2022-10-19T05:20:16.641Z,4
2022-10-19T05:25:16.783Z,2
2022-10-19T05:30:16.747Z,3
2022-10-19T05:35:18.750Z,4
2022-10-19T05:40:16.626Z,4
2022-10-19T05:45:16.722Z,4
2022-10-19T05:50:16.691Z,3
2022-10-19T05:55:16.678Z,3
2022-10-19T06:00:16.791Z,2
2022-10-19T06:05:16.941Z,2
2022-10-19T06:10:16.688Z,3
2022-10-19T06:15:16.931Z,3
2022-10-19T06:20:16.673Z,1
2022-10-19T06:25:19.535Z,3
2022-10-19T06:30:16.856Z,3
2022-10-19T06:35:16.772Z,3
2022-10-19T06:40:16.863Z,6
2022-10-19T06:45:16.715Z,4
2022-10-19T06:50:16.702Z,1
2022-10-19T06:55:16.876Z,4
2022-10-19T07:00:16.916Z,6
2022-10-19T07:05:16.852Z,3
2022-10-19T07:10:17.154Z,3
2022-10-19T07:15:16.819Z,2
2022-10-19T07:20:16.873Z,3
2022-10-19T07:25:17.068Z,6
2022-10-19T07:30:16.814Z,4
2022-10-19T07:35:16.837Z,6
2022-10-19T07:40:16.843Z,5
2022-10-19T07:45:16.910Z,3
2022-10-19T07:50:16.919Z,3
2022-10-19T07:55:16.980Z,2
2022-10-19T08:00:16.898Z,2
2022-10-19T08:05:17.589Z,2
2022-10-19T08:10:16.986Z,2
2022-10-19T08:15:17.052Z,2
2022-10-19T08:20:17.139Z,3
2022-10-19T08:25:16.979Z,3
2022-10-19T08:30:17.172Z,5
2022-10-19T08:35:17.065Z,6
2022-10-19T08:40:16.960Z,4
2022-10-19T08:45:16.943Z,4
2022-10-19T08:50:17.005Z,5
2022-10-19T08:55:20.414Z,3
2022-10-19T09:00:17.025Z,4
2022-10-19T09:05:17.048Z,6
2022-10-19T09:10:17.144Z,5
2022-10-19T09:15:17.150Z,6
2022-10-19T09:20:17.010Z,6
2022-10-19T09:25:17.130Z,6
2022-10-19T09:30:17.134Z,4
2022-10-19T09:35:17.057Z,4
2022-10-19T09:40:17.079Z,7
2022-10-19T09:45:17.148Z,5
2022-10-19T09:50:17.187Z,5
2022-10-19T09:55:17.120Z,4
2022-10-19T10:00:17.193Z,4
2022-10-19T10:05:17.175Z,3
2022-10-19T10:10:17.496Z,4
2022-10-19T10:15:17.181Z,9
2022-10-19T10:20:17.255Z,9
2022-10-19T10:25:17.230Z,8
2022-10-19T10:30:17.196Z,10
2022-10-19T10:35:17.226Z,9
2022-10-19T10:40:21.212Z,4
2022-10-19T10:45:17.240Z,4
2022-10-19T10:50:17.202Z,4
2022-10-19T10:55:17.297Z,2
2022-10-19T11:00:17.168Z,2
2022-10-19T11:05:17.294Z,6
2022-10-19T11:10:17.212Z,5
2022-10-19T11:15:17.409Z,3
2022-10-19T11:20:17.276Z,2
2022-10-19T11:25:17.297Z,3
2022-10-19T11:30:17.393Z,4
2022-10-19T11:35:17.309Z,5
2022-10-19T11:40:21.855Z,4
2022-10-19T11:45:17.503Z,2
2022-10-19T11:50:17.374Z,3
2022-10-19T11:55:17.290Z,4
2022-10-19T12:00:34.126Z,7
2022-10-19T12:05:15.367Z,4
2022-10-19T12:10:15.358Z,2
2022-10-19T12:15:15.349Z,3
2022-10-19T12:20:18.905Z,4
2022-10-19T12:25:15.501Z,3
2022-10-19T12:30:15.482Z,2
2022-10-19T12:35:15.612Z,2
2022-10-19T12:40:15.507Z,2
2022-10-19T12:45:15.544Z,2
2022-10-19T12:50:15.589Z,3
2022-10-19T12:55:15.539Z,7
2022-10-19T13:00:15.630Z,7
2022-10-19T13:05:15.498Z,10
2022-10-19T13:10:15.523Z,9
2022-10-19T13:15:15.525Z,10
2022-10-19T13:20:15.531Z,11
2022-10-19T13:25:15.639Z,9
2022-10-19T13:30:15.805Z,9
2022-10-19T13:35:15.538Z,10
2022-10-19T13:40:15.810Z,7
2022-10-19T13:45:15.635Z,9
2022-10-19T13:50:15.591Z,10
2022-10-19T13:55:15.532Z,10
2022-10-19T14:00:15.741Z,11
2022-10-19T14:05:15.708Z,13
2022-10-19T14:10:15.654Z,12
2022-10-19T14:15:15.641Z,12
2022-10-19T14:20:15.696Z,13
2022-10-19T14:25:15.686Z,12
2022-10-19T14:30:15.699Z,14
2022-10-19T14:35:15.729Z,16
2022-10-19T14:40:15.831Z,18
2022-10-19T14:45:15.729Z,18
2022-10-19T14:50:15.720Z,19
2022-10-19T14:55:17.786Z,20
2022-10-19T15:00:15.806Z,22
2022-10-19T15:05:15.780Z,19
2022-10-19T15:10:15.762Z,17
2022-10-19T15:15:15.826Z,17
2022-10-19T15:20:15.761Z,20
2022-10-19T15:25:15.812Z,19
2022-10-19T15:30:15.788Z,21
2022-10-19T15:35:15.950Z,21
2022-10-19T15:40:15.776Z,22
2022-10-19T15:45:16.011Z,24
2022-10-19T15:50:15.821Z,23
2022-10-19T15:55:15.805Z,20
2022-10-19T16:00:15.916Z,17
2022-10-19T16:05:15.936Z,22
2022-10-19T16:10:16.022Z,21
2022-10-19T16:15:15.925Z,21
2022-10-19T16:20:15.911Z,19
2022-10-19T16:25:15.895Z,21
2022-10-19T16:30:15.926Z,22
2022-10-19T16:35:15.867Z,23
2022-10-19T16:40:15.969Z,26
2022-10-19T16:45:16.040Z,26
2022-10-19T16:50:15.941Z,24
2022-10-19T16:55:15.974Z,24
2022-10-19T17:00:16.055Z,22
2022-10-19T17:05:16.009Z,26
2022-10-19T17:10:16.339Z,27
2022-10-19T17:15:41.566Z,24
2022-10-19T17:20:16.067Z,23
2022-10-19T17:25:16.052Z,27
2022-10-19T17:30:16.053Z,25
2022-10-19T17:35:16.113Z,27
2022-10-19T17:40:16.061Z,27
2022-10-19T17:45:16.051Z,23
2022-10-19T17:50:16.029Z,27
2022-10-19T17:55:16.123Z,27
2022-10-19T18:00:16.137Z,29
2022-10-19T18:05:16.295Z,26
2022-10-19T18:10:16.243Z,23
2022-10-19T18:15:16.432Z,24
2022-10-19T18:20:16.103Z,28
2022-10-19T18:25:21.656Z,25
2022-10-19T18:30:16.333Z,24
2022-10-19T18:35:16.189Z,18
2022-10-19T18:40:16.284Z,22
2022-10-19T18:45:16.156Z,28
2022-10-19T18:50:21.785Z,23
2022-10-19T18:55:16.236Z,25
2022-10-19T19:00:16.263Z,21
2022-10-19T19:05:16.352Z,22
2022-10-19T19:10:16.223Z,23
2022-10-19T19:15:16.295Z,30
2022-10-19T19:20:16.261Z,26
2022-10-19T19:25:16.529Z,25
2022-10-19T19:30:16.416Z,19
2022-10-19T19:35:16.307Z,20
2022-10-19T19:40:16.272Z,21
2022-10-19T19:45:16.342Z,17
2022-10-19T19:50:16.393Z,19
2022-10-19T19:55:16.342Z,19
2022-10-19T20:00:16.304Z,24
2022-10-19T20:05:16.606Z,22
2022-10-19T20:10:16.370Z,18
2022-10-19T20:15:16.402Z,19
2022-10-19T20:20:16.380Z,20
2022-10-19T20:25:16.480Z,16
2022-10-19T20:30:16.391Z,12
2022-10-19T20:35:16.399Z,18
2022-10-19T20:40:16.505Z,16
2022-10-19T20:45:16.402Z,13
2022-10-19T20:50:19.248Z,14
2022-10-19T20:55:16.473Z,11
2022-10-19T21:00:16.448Z,11
2022-10-19T21:05:16.453Z,12
2022-10-19T21:10:16.585Z,11
2022-10-19T21:15:16.513Z,5
2022-10-19T21:20:16.625Z,6
2022-10-19T21:25:16.553Z,7
2022-10-19T21:30:16.702Z,5
2022-10-19T21:35:16.518Z,8
2022-10-19T21:40:16.599Z,5
2022-10-19T21:45:29.849Z,3
2022-10-19T21:50:16.599Z,6
2022-10-19T21:55:16.658Z,7
2022-10-19T22:00:16.558Z,8
2022-10-19T22:05:16.691Z,6
2022-10-19T22:10:16.633Z,6
2022-10-19T22:15:16.661Z,6
2022-10-19T22:20:16.630Z,5
2022-10-19T22:25:16.699Z,7
2022-10-19T22:30:16.711Z,6
2022-10-19T22:35:17.019Z,5
2022-10-19T22:40:16.705Z,4
2022-10-19T22:45:16.715Z,4
2022-10-19T22:50:16.623Z,7
2022-10-19T22:55:16.638Z,7
2022-10-19T23:00:16.841Z,6
2022-10-19T23:05:16.677Z,6
2022-10-19T23:10:16.785Z,7
2022-10-19T23:15:16.753Z,5
2022-10-19T23:20:16.717Z,5
2022-10-19T23:25:16.772Z,8
2022-10-19T23:30:16.884Z,8
2022-10-19T23:35:16.787Z,8
2022-10-19T23:40:16.836Z,7
2022-10-19T23:45:16.855Z,5
2022-10-19T23:50:16.814Z,8
2022-10-19T23:55:16.925Z,9
